sensor_id;sensor_type;location;lat;lon;timestamp;P1;durP1;ratioP1;P2;durP2;ratioP2
57832;SDS011;43667;53.036;6.740;2023-04-24T00:02:13;0.80;;;0.40;;
57832;SDS011;43667;53.036;6.740;2023-04-24T00:04:39;1.05;;;0.50;;
57832;SDS011;43667;53.036;6.740;2023-04-24T00:07:06;1.17;;;0.52;;
57832;SDS011;43667;53.036;6.740;2023-04-24T00:09:32;0.73;;;0.60;;
57832;SDS011;43667;53.036;6.740;2023-04-24T00:11:58;1.40;;;0.68;;
57832;SDS011;43667;53.036;6.740;2023-04-24T00:14:24;1.52;;;0.40;;
57832;SDS011;43667;53.036;6.740;2023-04-24T00:16:50;0.35;;;0.32;;
57832;SDS011;43667;53.036;6.740;2023-04-24T00:19:16;1.27;;;0.40;;
57832;SDS011;43667;53.036;6.740;2023-04-24T00:21:42;0.50;;;0.40;;
57832;SDS011;43667;53.036;6.740;2023-04-24T00:24:07;0.40;;;0.30;;
57832;SDS011;43667;53.036;6.740;2023-04-24T00:26:36;1.67;;;0.50;;
57832;SDS011;43667;53.036;6.740;2023-04-24T00:29:01;0.82;;;0.45;;
57832;SDS011;43667;53.036;6.740;2023-04-24T00:31:27;0.90;;;0.50;;
57832;SDS011;43667;53.036;6.740;2023-04-24T00:33:53;0.93;;;0.60;;
57832;SDS011;43667;53.036;6.740;2023-04-24T00:36:18;0.75;;;0.75;;
57832;SDS011;43667;53.036;6.740;2023-04-24T00:38:45;1.48;;;0.60;;
57832;SDS011;43667;53.036;6.740;2023-04-24T00:41:11;1.58;;;0.80;;
57832;SDS011;43667;53.036;6.740;2023-04-24T00:43:37;0.60;;;0.60;;
57832;SDS011;43667;53.036;6.740;2023-04-24T00:46:02;0.52;;;0.52;;
57832;SDS011;43667;53.036;6.740;2023-04-24T00:48:28;0.35;;;0.35;;
57832;SDS011;43667;53.036;6.740;2023-04-24T00:50:55;1.15;;;0.70;;
57832;SDS011;43667;53.036;6.740;2023-04-24T00:53:22;0.50;;;0.50;;
57832;SDS011;43667;53.036;6.740;2023-04-24T00:55:47;0.63;;;0.40;;
57832;SDS011;43667;53.036;6.740;2023-04-24T00:58:13;0.85;;;0.60;;
57832;SDS011;43667;53.036;6.740;2023-04-24T01:00:39;0.75;;;0.70;;
57832;SDS011;43667;53.036;6.740;2023-04-24T01:03:05;0.60;;;0.60;;
57832;SDS011;43667;53.036;6.740;2023-04-24T01:05:32;1.00;;;0.52;;
57832;SDS011;43667;53.036;6.740;2023-04-24T01:07:59;0.98;;;0.98;;
57832;SDS011;43667;53.036;6.740;2023-04-24T01:10:26;1.02;;;0.73;;
57832;SDS011;43667;53.036;6.740;2023-04-24T01:12:54;0.60;;;0.60;;
57832;SDS011;43667;53.036;6.740;2023-04-24T01:15:20;1.73;;;1.05;;
57832;SDS011;43667;53.036;6.740;2023-04-24T01:17:46;1.17;;;1.05;;
57832;SDS011;43667;53.036;6.740;2023-04-24T01:20:11;1.00;;;0.80;;
57832;SDS011;43667;53.036;6.740;2023-04-24T01:22:38;1.25;;;1.15;;
57832;SDS011;43667;53.036;6.740;2023-04-24T01:25:04;1.63;;;1.52;;
57832;SDS011;43667;53.036;6.740;2023-04-24T01:27:30;1.60;;;1.45;;
57832;SDS011;43667;53.036;6.740;2023-04-24T01:29:56;1.60;;;1.50;;
57832;SDS011;43667;53.036;6.740;2023-04-24T01:32:22;1.73;;;1.63;;
57832;SDS011;43667;53.036;6.740;2023-04-24T01:34:50;2.90;;;2.60;;
57832;SDS011;43667;53.036;6.740;2023-04-24T01:37:16;2.60;;;2.40;;
57832;SDS011;43667;53.036;6.740;2023-04-24T01:39:42;3.17;;;2.97;;
57832;SDS011;43667;53.036;6.740;2023-04-24T01:42:08;2.80;;;2.60;;
57832;SDS011;43667;53.036;6.740;2023-04-24T01:44:34;4.32;;;3.65;;
57832;SDS011;43667;53.036;6.740;2023-04-24T01:47:00;3.50;;;3.20;;
57832;SDS011;43667;53.036;6.740;2023-04-24T01:49:26;3.75;;;3.47;;
57832;SDS011;43667;53.036;6.740;2023-04-24T01:51:52;4.95;;;4.55;;
57832;SDS011;43667;53.036;6.740;2023-04-24T01:54:18;4.10;;;3.80;;
57832;SDS011;43667;53.036;6.740;2023-04-24T01:56:43;5.30;;;4.70;;
57832;SDS011;43667;53.036;6.740;2023-04-24T01:59:10;4.63;;;4.32;;
57832;SDS011;43667;53.036;6.740;2023-04-24T02:01:36;6.22;;;5.70;;
57832;SDS011;43667;53.036;6.740;2023-04-24T02:04:03;5.70;;;5.30;;
57832;SDS011;43667;53.036;6.740;2023-04-24T02:06:30;5.50;;;5.10;;
57832;SDS011;43667;53.036;6.740;2023-04-24T02:08:56;5.88;;;5.45;;
57832;SDS011;43667;53.036;6.740;2023-04-24T02:11:23;6.15;;;5.75;;
57832;SDS011;43667;53.036;6.740;2023-04-24T02:13:49;6.57;;;5.97;;
57832;SDS011;43667;53.036;6.740;2023-04-24T02:16:15;7.65;;;7.15;;
57832;SDS011;43667;53.036;6.740;2023-04-24T02:18:41;6.82;;;6.20;;
57832;SDS011;43667;53.036;6.740;2023-04-24T02:21:06;7.85;;;7.25;;
57832;SDS011;43667;53.036;6.740;2023-04-24T02:23:32;7.78;;;6.90;;
57832;SDS011;43667;53.036;6.740;2023-04-24T02:25:57;7.50;;;6.78;;
57832;SDS011;43667;53.036;6.740;2023-04-24T02:28:23;7.00;;;6.50;;
57832;SDS011;43667;53.036;6.740;2023-04-24T02:30:48;7.18;;;6.57;;
57832;SDS011;43667;53.036;6.740;2023-04-24T02:33:15;7.75;;;7.18;;
57832;SDS011;43667;53.036;6.740;2023-04-24T02:35:41;7.97;;;7.45;;
57832;SDS011;43667;53.036;6.740;2023-04-24T02:38:06;8.05;;;7.43;;
57832;SDS011;43667;53.036;6.740;2023-04-24T02:40:32;8.18;;;7.47;;
57832;SDS011;43667;53.036;6.740;2023-04-24T02:42:57;7.13;;;6.63;;
57832;SDS011;43667;53.036;6.740;2023-04-24T02:45:23;8.50;;;7.90;;
57832;SDS011;43667;53.036;6.740;2023-04-24T02:47:48;7.85;;;7.35;;
57832;SDS011;43667;53.036;6.740;2023-04-24T02:50:14;7.43;;;6.75;;
57832;SDS011;43667;53.036;6.740;2023-04-24T02:52:40;8.13;;;7.53;;
57832;SDS011;43667;53.036;6.740;2023-04-24T02:55:05;9.20;;;8.50;;
57832;SDS011;43667;53.036;6.740;2023-04-24T02:57:32;7.28;;;6.68;;
57832;SDS011;43667;53.036;6.740;2023-04-24T02:59:58;6.97;;;6.47;;
57832;SDS011;43667;53.036;6.740;2023-04-24T03:02:24;7.63;;;6.20;;
57832;SDS011;43667;53.036;6.740;2023-04-24T03:04:50;7.03;;;6.53;;
57832;SDS011;43667;53.036;6.740;2023-04-24T03:07:15;6.38;;;5.88;;
57832;SDS011;43667;53.036;6.740;2023-04-24T03:09:41;7.10;;;6.47;;
57832;SDS011;43667;53.036;6.740;2023-04-24T03:12:07;7.68;;;7.05;;
57832;SDS011;43667;53.036;6.740;2023-04-24T03:14:32;6.25;;;5.82;;
57832;SDS011;43667;53.036;6.740;2023-04-24T03:16:58;6.50;;;5.93;;
57832;SDS011;43667;53.036;6.740;2023-04-24T03:19:24;5.90;;;5.40;;
57832;SDS011;43667;53.036;6.740;2023-04-24T03:21:49;5.57;;;5.07;;
57832;SDS011;43667;53.036;6.740;2023-04-24T03:24:15;5.00;;;4.60;;
57832;SDS011;43667;53.036;6.740;2023-04-24T03:26:41;4.75;;;4.45;;
57832;SDS011;43667;53.036;6.740;2023-04-24T03:29:06;6.05;;;5.45;;
57832;SDS011;43667;53.036;6.740;2023-04-24T03:31:32;6.10;;;5.60;;
57832;SDS011;43667;53.036;6.740;2023-04-24T03:33:58;5.90;;;4.20;;
57832;SDS011;43667;53.036;6.740;2023-04-24T03:36:23;5.82;;;5.32;;
57832;SDS011;43667;53.036;6.740;2023-04-24T03:38:49;4.68;;;4.32;;
57832;SDS011;43667;53.036;6.740;2023-04-24T03:41:14;4.72;;;4.22;;
57832;SDS011;43667;53.036;6.740;2023-04-24T03:43:40;5.80;;;5.40;;
57832;SDS011;43667;53.036;6.740;2023-04-24T03:46:05;5.60;;;5.10;;
57832;SDS011;43667;53.036;6.740;2023-04-24T03:48:34;6.00;;;5.50;;
57832;SDS011;43667;53.036;6.740;2023-04-24T03:51:00;6.13;;;5.63;;
57832;SDS011;43667;53.036;6.740;2023-04-24T03:53:25;6.95;;;6.30;;
57832;SDS011;43667;53.036;6.740;2023-04-24T03:55:51;6.28;;;5.78;;
57832;SDS011;43667;53.036;6.740;2023-04-24T03:58:18;6.55;;;5.97;;
57832;SDS011;43667;53.036;6.740;2023-04-24T04:00:43;6.82;;;6.30;;
57832;SDS011;43667;53.036;6.740;2023-04-24T04:03:09;6.93;;;6.32;;
57832;SDS011;43667;53.036;6.740;2023-04-24T04:05:35;7.90;;;7.20;;
57832;SDS011;43667;53.036;6.740;2023-04-24T04:08:00;7.20;;;6.50;;
57832;SDS011;43667;53.036;6.740;2023-04-24T04:10:26;9.00;;;8.10;;
57832;SDS011;43667;53.036;6.740;2023-04-24T04:12:51;10.70;;;7.57;;
57832;SDS011;43667;53.036;6.740;2023-04-24T04:15:17;9.02;;;8.23;;
57832;SDS011;43667;53.036;6.740;2023-04-24T04:17:43;10.07;;;9.18;;
57832;SDS011;43667;53.036;6.740;2023-04-24T04:20:08;8.20;;;7.60;;
57832;SDS011;43667;53.036;6.740;2023-04-24T04:22:35;6.97;;;6.40;;
57832;SDS011;43667;53.036;6.740;2023-04-24T04:25:02;10.05;;;9.00;;
57832;SDS011;43667;53.036;6.740;2023-04-24T04:27:28;9.40;;;8.70;;
57832;SDS011;43667;53.036;6.740;2023-04-24T04:29:56;8.40;;;7.60;;
57832;SDS011;43667;53.036;6.740;2023-04-24T04:32:32;7.63;;;6.93;;
57832;SDS011;43667;53.036;6.740;2023-04-24T04:34:59;7.55;;;6.88;;
57832;SDS011;43667;53.036;6.740;2023-04-24T04:37:37;10.38;;;6.38;;
57832;SDS011;43667;53.036;6.740;2023-04-24T04:40:03;5.85;;;5.35;;
57832;SDS011;43667;53.036;6.740;2023-04-24T04:42:32;5.82;;;5.43;;
57832;SDS011;43667;53.036;6.740;2023-04-24T04:44:59;4.20;;;3.80;;
57832;SDS011;43667;53.036;6.740;2023-04-24T04:47:25;4.38;;;4.07;;
57832;SDS011;43667;53.036;6.740;2023-04-24T04:49:53;3.20;;;3.00;;
57832;SDS011;43667;53.036;6.740;2023-04-24T04:52:19;3.53;;;2.92;;
57832;SDS011;43667;53.036;6.740;2023-04-24T04:54:45;3.50;;;3.15;;
57832;SDS011;43667;53.036;6.740;2023-04-24T04:57:11;3.70;;;2.75;;
57832;SDS011;43667;53.036;6.740;2023-04-24T04:59:37;3.92;;;2.83;;
57832;SDS011;43667;53.036;6.740;2023-04-24T05:02:03;2.95;;;2.75;;
57832;SDS011;43667;53.036;6.740;2023-04-24T05:04:28;2.55;;;2.35;;
57832;SDS011;43667;53.036;6.740;2023-04-24T05:06:55;1.60;;;1.50;;
57832;SDS011;43667;53.036;6.740;2023-04-24T05:09:21;2.72;;;1.50;;
57832;SDS011;43667;53.036;6.740;2023-04-24T05:11:47;1.35;;;1.25;;
57832;SDS011;43667;53.036;6.740;2023-04-24T05:14:12;3.42;;;1.65;;
57832;SDS011;43667;53.036;6.740;2023-04-24T05:16:38;2.25;;;1.40;;
57832;SDS011;43667;53.036;6.740;2023-04-24T05:19:04;2.00;;;1.80;;
57832;SDS011;43667;53.036;6.740;2023-04-24T05:21:30;2.90;;;2.40;;
57832;SDS011;43667;53.036;6.740;2023-04-24T05:23:56;4.28;;;2.75;;
57832;SDS011;43667;53.036;6.740;2023-04-24T05:26:22;4.60;;;3.20;;
57832;SDS011;43667;53.036;6.740;2023-04-24T05:28:48;5.80;;;3.63;;
57832;SDS011;43667;53.036;6.740;2023-04-24T05:31:14;4.50;;;4.10;;
57832;SDS011;43667;53.036;6.740;2023-04-24T05:33:40;4.88;;;4.47;;
57832;SDS011;43667;53.036;6.740;2023-04-24T05:36:06;4.82;;;4.43;;
57832;SDS011;43667;53.036;6.740;2023-04-24T05:38:31;4.75;;;4.35;;
57832;SDS011;43667;53.036;6.740;2023-04-24T05:40:57;5.43;;;4.93;;
57832;SDS011;43667;53.036;6.740;2023-04-24T05:43:22;5.43;;;4.82;;
57832;SDS011;43667;53.036;6.740;2023-04-24T05:45:48;4.75;;;3.90;;
57832;SDS011;43667;53.036;6.740;2023-04-24T05:48:14;4.32;;;4.00;;
57832;SDS011;43667;53.036;6.740;2023-04-24T05:50:40;4.25;;;3.90;;
57832;SDS011;43667;53.036;6.740;2023-04-24T05:53:06;3.60;;;3.30;;
57832;SDS011;43667;53.036;6.740;2023-04-24T05:55:32;3.58;;;3.22;;
57832;SDS011;43667;53.036;6.740;2023-04-24T05:57:58;3.70;;;3.40;;
57832;SDS011;43667;53.036;6.740;2023-04-24T06:00:24;3.78;;;3.47;;
57832;SDS011;43667;53.036;6.740;2023-04-24T06:02:50;3.65;;;2.85;;
57832;SDS011;43667;53.036;6.740;2023-04-24T06:05:16;3.10;;;2.78;;
57832;SDS011;43667;53.036;6.740;2023-04-24T06:07:42;3.58;;;3.10;;
57832;SDS011;43667;53.036;6.740;2023-04-24T06:10:08;2.80;;;2.60;;
57832;SDS011;43667;53.036;6.740;2023-04-24T06:12:34;3.22;;;2.90;;
57832;SDS011;43667;53.036;6.740;2023-04-24T06:15:00;3.00;;;2.80;;
57832;SDS011;43667;53.036;6.740;2023-04-24T06:17:26;3.97;;;3.10;;
57832;SDS011;43667;53.036;6.740;2023-04-24T06:19:51;2.70;;;2.50;;
57832;SDS011;43667;53.036;6.740;2023-04-24T06:22:17;3.30;;;2.85;;
57832;SDS011;43667;53.036;6.740;2023-04-24T06:24:42;3.55;;;3.25;;
57832;SDS011;43667;53.036;6.740;2023-04-24T06:27:08;4.15;;;2.85;;
57832;SDS011;43667;53.036;6.740;2023-04-24T06:29:33;2.97;;;2.78;;
57832;SDS011;43667;53.036;6.740;2023-04-24T06:31:59;4.15;;;3.30;;
57832;SDS011;43667;53.036;6.740;2023-04-24T06:34:25;3.10;;;2.85;;
57832;SDS011;43667;53.036;6.740;2023-04-24T06:36:50;2.60;;;2.40;;
57832;SDS011;43667;53.036;6.740;2023-04-24T06:39:16;3.40;;;3.10;;
57832;SDS011;43667;53.036;6.740;2023-04-24T06:41:42;3.17;;;2.90;;
57832;SDS011;43667;53.036;6.740;2023-04-24T06:44:07;3.85;;;3.05;;
57832;SDS011;43667;53.036;6.740;2023-04-24T06:46:33;2.80;;;2.22;;
57832;SDS011;43667;53.036;6.740;2023-04-24T06:48:58;2.20;;;2.00;;
57832;SDS011;43667;53.036;6.740;2023-04-24T06:51:25;2.65;;;2.30;;
57832;SDS011;43667;53.036;6.740;2023-04-24T06:53:52;4.32;;;1.85;;
57832;SDS011;43667;53.036;6.740;2023-04-24T06:56:18;2.42;;;1.83;;
57832;SDS011;43667;53.036;6.740;2023-04-24T06:58:45;1.60;;;1.50;;
57832;SDS011;43667;53.036;6.740;2023-04-24T07:01:11;2.70;;;2.00;;
57832;SDS011;43667;53.036;6.740;2023-04-24T07:03:36;2.78;;;2.55;;
57832;SDS011;43667;53.036;6.740;2023-04-24T07:06:02;6.32;;;3.35;;
57832;SDS011;43667;53.036;6.740;2023-04-24T07:08:29;4.32;;;3.92;;
57832;SDS011;43667;53.036;6.740;2023-04-24T07:10:58;4.50;;;3.88;;
57832;SDS011;43667;53.036;6.740;2023-04-24T07:13:24;5.72;;;4.47;;
57832;SDS011;43667;53.036;6.740;2023-04-24T07:15:50;7.93;;;4.07;;
57832;SDS011;43667;53.036;6.740;2023-04-24T07:18:17;5.45;;;4.15;;
57832;SDS011;43667;53.036;6.740;2023-04-24T07:20:43;5.32;;;4.78;;
57832;SDS011;43667;53.036;6.740;2023-04-24T07:23:09;5.78;;;4.78;;
57832;SDS011;43667;53.036;6.740;2023-04-24T07:25:35;5.00;;;3.85;;
57832;SDS011;43667;53.036;6.740;2023-04-24T07:28:01;5.38;;;4.68;;
57832;SDS011;43667;53.036;6.740;2023-04-24T07:30:26;4.40;;;4.10;;
57832;SDS011;43667;53.036;6.740;2023-04-24T07:32:56;5.05;;;4.50;;
57832;SDS011;43667;53.036;6.740;2023-04-24T07:35:22;6.65;;;3.92;;
57832;SDS011;43667;53.036;6.740;2023-04-24T07:37:48;5.95;;;4.20;;
57832;SDS011;43667;53.036;6.740;2023-04-24T07:40:13;4.43;;;3.53;;
57832;SDS011;43667;53.036;6.740;2023-04-24T07:42:39;5.72;;;2.80;;
57832;SDS011;43667;53.036;6.740;2023-04-24T07:45:05;4.18;;;2.40;;
57832;SDS011;43667;53.036;6.740;2023-04-24T07:47:31;4.03;;;2.15;;
57832;SDS011;43667;53.036;6.740;2023-04-24T07:49:58;3.25;;;1.45;;
57832;SDS011;43667;53.036;6.740;2023-04-24T07:52:24;3.92;;;1.73;;
57832;SDS011;43667;53.036;6.740;2023-04-24T07:54:50;5.13;;;2.47;;
57832;SDS011;43667;53.036;6.740;2023-04-24T07:57:17;4.80;;;1.90;;
57832;SDS011;43667;53.036;6.740;2023-04-24T07:59:43;2.40;;;1.67;;
57832;SDS011;43667;53.036;6.740;2023-04-24T08:02:08;3.25;;;1.50;;
57832;SDS011;43667;53.036;6.740;2023-04-24T08:04:34;2.17;;;1.55;;
57832;SDS011;43667;53.036;6.740;2023-04-24T08:07:00;3.58;;;1.67;;
57832;SDS011;43667;53.036;6.740;2023-04-24T08:09:25;5.00;;;1.60;;
57832;SDS011;43667;53.036;6.740;2023-04-24T08:11:51;6.53;;;1.70;;
57832;SDS011;43667;53.036;6.740;2023-04-24T08:14:18;3.47;;;1.50;;
57832;SDS011;43667;53.036;6.740;2023-04-24T08:16:43;2.97;;;1.60;;
57832;SDS011;43667;53.036;6.740;2023-04-24T08:19:09;11.18;;;2.00;;
57832;SDS011;43667;53.036;6.740;2023-04-24T08:21:35;5.10;;;1.73;;
57832;SDS011;43667;53.036;6.740;2023-04-24T08:24:00;4.45;;;1.80;;
57832;SDS011;43667;53.036;6.740;2023-04-24T08:26:30;5.13;;;1.70;;
57832;SDS011;43667;53.036;6.740;2023-04-24T08:28:55;4.60;;;2.00;;
57832;SDS011;43667;53.036;6.740;2023-04-24T08:31:21;7.82;;;2.60;;
57832;SDS011;43667;53.036;6.740;2023-04-24T08:33:47;7.53;;;3.22;;
57832;SDS011;43667;53.036;6.740;2023-04-24T08:36:13;11.02;;;5.00;;
57832;SDS011;43667;53.036;6.740;2023-04-24T08:38:38;10.70;;;6.82;;
57832;SDS011;43667;53.036;6.740;2023-04-24T08:41:04;16.35;;;8.48;;
57832;SDS011;43667;53.036;6.740;2023-04-24T08:43:32;15.52;;;10.70;;
57832;SDS011;43667;53.036;6.740;2023-04-24T08:46:01;21.17;;;11.15;;
57832;SDS011;43667;53.036;6.740;2023-04-24T08:48:29;22.45;;;12.93;;
57832;SDS011;43667;53.036;6.740;2023-04-24T08:50:55;19.00;;;11.57;;
57832;SDS011;43667;53.036;6.740;2023-04-24T08:53:21;18.10;;;11.80;;
57832;SDS011;43667;53.036;6.740;2023-04-24T08:55:48;21.85;;;13.55;;
57832;SDS011;43667;53.036;6.740;2023-04-24T08:58:18;23.38;;;16.13;;
57832;SDS011;43667;53.036;6.740;2023-04-24T09:00:44;22.85;;;14.48;;
57832;SDS011;43667;53.036;6.740;2023-04-24T09:03:11;25.05;;;14.32;;
57832;SDS011;43667;53.036;6.740;2023-04-24T09:05:46;26.02;;;16.77;;
57832;SDS011;43667;53.036;6.740;2023-04-24T09:08:13;24.92;;;15.93;;
57832;SDS011;43667;53.036;6.740;2023-04-24T09:10:40;25.05;;;15.32;;
57832;SDS011;43667;53.036;6.740;2023-04-24T09:13:06;23.20;;;13.98;;
57832;SDS011;43667;53.036;6.740;2023-04-24T09:15:34;19.88;;;13.23;;
57832;SDS011;43667;53.036;6.740;2023-04-24T09:18:00;19.10;;;11.75;;
57832;SDS011;43667;53.036;6.740;2023-04-24T09:20:26;24.70;;;14.32;;
57832;SDS011;43667;53.036;6.740;2023-04-24T09:22:53;23.73;;;14.73;;
57832;SDS011;43667;53.036;6.740;2023-04-24T09:25:20;24.92;;;13.95;;
57832;SDS011;43667;53.036;6.740;2023-04-24T09:27:46;22.98;;;14.90;;
57832;SDS011;43667;53.036;6.740;2023-04-24T09:30:12;19.15;;;13.60;;
57832;SDS011;43667;53.036;6.740;2023-04-24T09:32:38;19.65;;;13.63;;
57832;SDS011;43667;53.036;6.740;2023-04-24T09:35:05;22.80;;;14.73;;
57832;SDS011;43667;53.036;6.740;2023-04-24T09:37:41;18.58;;;13.73;;
57832;SDS011;43667;53.036;6.740;2023-04-24T09:40:09;19.95;;;13.45;;
57832;SDS011;43667;53.036;6.740;2023-04-24T09:42:55;19.75;;;14.68;;
57832;SDS011;43667;53.036;6.740;2023-04-24T09:45:35;19.77;;;14.07;;
57832;SDS011;43667;53.036;6.740;2023-04-24T09:48:02;19.42;;;13.82;;
57832;SDS011;43667;53.036;6.740;2023-04-24T09:50:30;18.02;;;13.50;;
57832;SDS011;43667;53.036;6.740;2023-04-24T09:53:01;21.15;;;13.40;;
57832;SDS011;43667;53.036;6.740;2023-04-24T09:55:28;20.02;;;13.90;;
57832;SDS011;43667;53.036;6.740;2023-04-24T09:57:55;16.98;;;12.32;;
57832;SDS011;43667;53.036;6.740;2023-04-24T10:00:26;18.23;;;11.63;;
57832;SDS011;43667;53.036;6.740;2023-04-24T10:02:57;17.02;;;11.35;;
57832;SDS011;43667;53.036;6.740;2023-04-24T10:05:25;16.67;;;10.02;;
57832;SDS011;43667;53.036;6.740;2023-04-24T10:08:02;14.45;;;10.32;;
57832;SDS011;43667;53.036;6.740;2023-04-24T10:10:33;15.05;;;9.43;;
57832;SDS011;43667;53.036;6.740;2023-04-24T10:13:10;13.68;;;8.60;;
57832;SDS011;43667;53.036;6.740;2023-04-24T10:15:37;12.60;;;7.20;;
57832;SDS011;43667;53.036;6.740;2023-04-24T10:18:07;17.50;;;8.63;;
57832;SDS011;43667;53.036;6.740;2023-04-24T10:20:33;15.80;;;7.57;;
57832;SDS011;43667;53.036;6.740;2023-04-24T10:23:00;12.43;;;7.25;;
57832;SDS011;43667;53.036;6.740;2023-04-24T10:25:27;13.90;;;7.57;;
57832;SDS011;43667;53.036;6.740;2023-04-24T10:27:55;18.35;;;6.68;;
57832;SDS011;43667;53.036;6.740;2023-04-24T10:30:26;10.00;;;6.05;;
57832;SDS011;43667;53.036;6.740;2023-04-24T10:32:52;14.55;;;6.88;;
57832;SDS011;43667;53.036;6.740;2023-04-24T10:35:19;16.55;;;7.10;;
57832;SDS011;43667;53.036;6.740;2023-04-24T10:37:53;15.23;;;6.22;;
57832;SDS011;43667;53.036;6.740;2023-04-24T10:40:26;14.95;;;6.10;;
57832;SDS011;43667;53.036;6.740;2023-04-24T10:42:55;11.88;;;5.30;;
57832;SDS011;43667;53.036;6.740;2023-04-24T10:45:22;13.23;;;5.38;;
57832;SDS011;43667;53.036;6.740;2023-04-24T10:48:01;13.95;;;5.07;;
57832;SDS011;43667;53.036;6.740;2023-04-24T10:50:27;10.93;;;5.30;;
57832;SDS011;43667;53.036;6.740;2023-04-24T10:53:04;13.63;;;5.05;;
57832;SDS011;43667;53.036;6.740;2023-04-24T10:58:09;9.40;;;3.50;;
57832;SDS011;43667;53.036;6.740;2023-04-24T11:00:39;8.32;;;2.90;;
57832;SDS011;43667;53.036;6.740;2023-04-24T11:03:06;7.35;;;2.83;;
57832;SDS011;43667;53.036;6.740;2023-04-24T11:11:00;7.97;;;2.53;;
57832;SDS011;43667;53.036;6.740;2023-04-24T11:14:00;8.32;;;2.58;;
57832;SDS011;43667;53.036;6.740;2023-04-24T11:16:26;5.35;;;2.30;;
57832;SDS011;43667;53.036;6.740;2023-04-24T11:19:02;6.85;;;2.35;;
57832;SDS011;43667;53.036;6.740;2023-04-24T11:21:58;8.02;;;2.40;;
57832;SDS011;43667;53.036;6.740;2023-04-24T11:32:24;6.93;;;2.10;;
57832;SDS011;43667;53.036;6.740;2023-04-24T11:35:10;11.07;;;2.83;;
57832;SDS011;43667;53.036;6.740;2023-04-24T11:37:51;7.78;;;2.25;;
57832;SDS011;43667;53.036;6.740;2023-04-24T11:40:18;7.75;;;2.28;;
57832;SDS011;43667;53.036;6.740;2023-04-24T11:42:48;5.47;;;2.38;;
57832;SDS011;43667;53.036;6.740;2023-04-24T11:45:16;7.10;;;2.00;;
57832;SDS011;43667;53.036;6.740;2023-04-24T11:47:49;7.97;;;2.15;;
57832;SDS011;43667;53.036;6.740;2023-04-24T11:50:16;10.95;;;2.42;;
57832;SDS011;43667;53.036;6.740;2023-04-24T11:52:45;6.22;;;1.95;;
57832;SDS011;43667;53.036;6.740;2023-04-24T11:57:44;6.40;;;1.83;;
57832;SDS011;43667;53.036;6.740;2023-04-24T12:00:18;8.63;;;2.13;;
57832;SDS011;43667;53.036;6.740;2023-04-24T12:02:45;6.45;;;1.50;;
57832;SDS011;43667;53.036;6.740;2023-04-24T12:07:51;5.63;;;1.65;;
57832;SDS011;43667;53.036;6.740;2023-04-24T12:10:23;7.70;;;2.05;;
57832;SDS011;43667;53.036;6.740;2023-04-24T12:12:51;10.40;;;1.70;;
57832;SDS011;43667;53.036;6.740;2023-04-24T12:15:17;7.88;;;1.85;;
57832;SDS011;43667;53.036;6.740;2023-04-24T12:17:45;6.78;;;1.65;;
57832;SDS011;43667;53.036;6.740;2023-04-24T12:20:11;6.00;;;1.55;;
57832;SDS011;43667;53.036;6.740;2023-04-24T12:22:49;6.65;;;1.20;;
57832;SDS011;43667;53.036;6.740;2023-04-24T12:25:20;7.20;;;1.35;;
57832;SDS011;43667;53.036;6.740;2023-04-24T12:30:33;5.85;;;1.30;;
57832;SDS011;43667;53.036;6.740;2023-04-24T12:33:03;6.72;;;1.55;;
57832;SDS011;43667;53.036;6.740;2023-04-24T12:35:29;5.60;;;1.30;;
57832;SDS011;43667;53.036;6.740;2023-04-24T12:38:07;8.38;;;1.50;;
57832;SDS011;43667;53.036;6.740;2023-04-24T12:40:38;7.68;;;1.83;;
57832;SDS011;43667;53.036;6.740;2023-04-24T12:45:42;9.77;;;2.25;;
57832;SDS011;43667;53.036;6.740;2023-04-24T12:48:09;7.07;;;2.08;;
57832;SDS011;43667;53.036;6.740;2023-04-24T12:50:35;7.25;;;2.03;;
57832;SDS011;43667;53.036;6.740;2023-04-24T12:53:01;6.50;;;1.92;;
57832;SDS011;43667;53.036;6.740;2023-04-24T12:55:26;5.68;;;1.60;;
57832;SDS011;43667;53.036;6.740;2023-04-24T12:57:52;5.78;;;1.25;;
57832;SDS011;43667;53.036;6.740;2023-04-24T13:00:20;4.88;;;1.95;;
57832;SDS011;43667;53.036;6.740;2023-04-24T13:02:46;4.75;;;1.92;;
57832;SDS011;43667;53.036;6.740;2023-04-24T13:05:11;6.32;;;1.35;;
57832;SDS011;43667;53.036;6.740;2023-04-24T13:07:38;7.93;;;1.52;;
57832;SDS011;43667;53.036;6.740;2023-04-24T13:10:04;3.75;;;0.95;;
57832;SDS011;43667;53.036;6.740;2023-04-24T13:12:31;6.15;;;1.35;;
57832;SDS011;43667;53.036;6.740;2023-04-24T13:14:57;8.73;;;1.33;;
57832;SDS011;43667;53.036;6.740;2023-04-24T13:17:22;6.82;;;1.30;;
57832;SDS011;43667;53.036;6.740;2023-04-24T13:19:49;5.97;;;1.10;;
57832;SDS011;43667;53.036;6.740;2023-04-24T13:22:16;6.32;;;1.33;;
57832;SDS011;43667;53.036;6.740;2023-04-24T13:24:43;2.95;;;1.00;;
57832;SDS011;43667;53.036;6.740;2023-04-24T13:27:09;6.53;;;1.23;;
57832;SDS011;43667;53.036;6.740;2023-04-24T13:29:38;4.35;;;1.20;;
57832;SDS011;43667;53.036;6.740;2023-04-24T13:32:04;8.25;;;1.35;;
57832;SDS011;43667;53.036;6.740;2023-04-24T13:34:30;6.93;;;0.90;;
57832;SDS011;43667;53.036;6.740;2023-04-24T13:36:56;4.90;;;0.88;;
57832;SDS011;43667;53.036;6.740;2023-04-24T13:39:23;3.97;;;0.80;;
57832;SDS011;43667;53.036;6.740;2023-04-24T13:41:50;7.50;;;1.23;;
57832;SDS011;43667;53.036;6.740;2023-04-24T13:44:16;5.70;;;0.82;;
57832;SDS011;43667;53.036;6.740;2023-04-24T13:46:43;6.90;;;1.77;;
57832;SDS011;43667;53.036;6.740;2023-04-24T13:49:14;7.70;;;1.08;;
57832;SDS011;43667;53.036;6.740;2023-04-24T13:51:40;4.47;;;0.68;;
57832;SDS011;43667;53.036;6.740;2023-04-24T13:54:07;6.88;;;1.23;;
57832;SDS011;43667;53.036;6.740;2023-04-24T13:56:33;5.72;;;0.63;;
57832;SDS011;43667;53.036;6.740;2023-04-24T13:58:59;4.40;;;0.63;;
57832;SDS011;43667;53.036;6.740;2023-04-24T14:01:25;6.55;;;0.90;;
57832;SDS011;43667;53.036;6.740;2023-04-24T14:03:51;1.92;;;0.50;;
57832;SDS011;43667;53.036;6.740;2023-04-24T14:06:18;4.22;;;0.50;;
57832;SDS011;43667;53.036;6.740;2023-04-24T14:08:50;1.77;;;0.47;;
57832;SDS011;43667;53.036;6.740;2023-04-24T14:11:17;3.65;;;1.02;;
57832;SDS011;43667;53.036;6.740;2023-04-24T14:13:43;3.40;;;0.28;;
57832;SDS011;43667;53.036;6.740;2023-04-24T14:16:10;1.65;;;0.35;;
57832;SDS011;43667;53.036;6.740;2023-04-24T14:18:35;3.28;;;0.68;;
57832;SDS011;43667;53.036;6.740;2023-04-24T14:21:02;1.45;;;0.50;;
57832;SDS011;43667;53.036;6.740;2023-04-24T14:23:28;2.33;;;0.40;;
57832;SDS011;43667;53.036;6.740;2023-04-24T14:25:54;3.63;;;0.47;;
57832;SDS011;43667;53.036;6.740;2023-04-24T14:28:20;3.60;;;0.75;;
57832;SDS011;43667;53.036;6.740;2023-04-24T14:30:46;3.42;;;0.65;;
57832;SDS011;43667;53.036;6.740;2023-04-24T14:33:12;5.05;;;1.40;;
57832;SDS011;43667;53.036;6.740;2023-04-24T14:35:38;8.65;;;1.33;;
57832;SDS011;43667;53.036;6.740;2023-04-24T14:38:07;6.25;;;1.10;;
57832;SDS011;43667;53.036;6.740;2023-04-24T14:40:33;5.90;;;1.20;;
57832;SDS011;43667;53.036;6.740;2023-04-24T14:42:59;7.95;;;1.42;;
57832;SDS011;43667;53.036;6.740;2023-04-24T14:45:25;6.97;;;1.75;;
57832;SDS011;43667;53.036;6.740;2023-04-24T14:47:52;6.65;;;1.60;;
57832;SDS011;43667;53.036;6.740;2023-04-24T14:50:18;9.27;;;1.60;;
57832;SDS011;43667;53.036;6.740;2023-04-24T14:52:43;8.45;;;1.73;;
57832;SDS011;43667;53.036;6.740;2023-04-24T14:55:09;12.52;;;2.40;;
57832;SDS011;43667;53.036;6.740;2023-04-24T14:57:35;11.20;;;2.10;;
57832;SDS011;43667;53.036;6.740;2023-04-24T15:00:01;12.90;;;2.53;;
57832;SDS011;43667;53.036;6.740;2023-04-24T15:02:28;13.63;;;2.60;;
57832;SDS011;43667;53.036;6.740;2023-04-24T15:04:54;10.48;;;2.17;;
57832;SDS011;43667;53.036;6.740;2023-04-24T15:07:19;11.75;;;2.45;;
57832;SDS011;43667;53.036;6.740;2023-04-24T15:09:45;11.05;;;2.03;;